Terminal Aerodrome Forecast
Issued by NWS King Salmon, AK

Home | Current Version | Previous Version | Text Only | Print | Product List | Glossary On
Versions: 1 2 3 4 5 6 7 8 9 10 11 12 13 14 15 16 17 18 19 20 21 22 23 24 25 26 27 28 29 30 31 32 33 34 35 36
000
FTAK31 PANC 280539
TAFAKN
TAF
PAKN 280539Z 2806/2906 29010KT P6SM FEW060 SCT250
     FM281200 19005KT 2SM BR BKN006
      TEMPO 2813/2817 1/2SM FG VV001
     FM282000 20013KT P6SM SCT004 BKN015 OVC050=

USA.gov is the U.S. government's official web portal to all federal, state and local government web resources and services.